Time,TemperatureF,DewpointF,PressureIn,WindDirection,WindDirectionDegrees,WindSpeedMPH,WindSpeedGustMPH,Humidity,HourlyPrecipIn,Conditions,Clouds,dailyrainin,SoftwareType,DateUTC
2013-04-24 00:02:00,46.6,42.1,30.09,NW,307,4.0,8.0,84,0.00,,,0.00,meteohub,2013-04-24 05:02:00,
2013-04-24 00:07:00,46.4,41.9,30.09,WNW,302,4.0,8.0,84,0.00,,,0.00,meteohub,2013-04-24 05:07:00,
2013-04-24 00:12:00,46.2,41.7,30.09,North,5,3.0,8.0,84,0.00,,,0.00,meteohub,2013-04-24 05:12:00,
2013-04-24 00:17:00,46.0,41.2,30.10,NW,304,2.0,12.0,83,0.00,,,0.00,meteohub,2013-04-24 05:17:00,
2013-04-24 00:22:00,46.0,41.2,30.11,West,263,0.0,12.0,83,0.00,,,0.00,meteohub,2013-04-24 05:22:00,
2013-04-24 00:27:00,46.0,41.2,30.10,NW,309,3.0,12.0,83,0.00,,,0.00,meteohub,2013-04-24 05:27:00,
2013-04-24 00:32:00,45.9,41.0,30.11,NNE,25,3.0,9.0,83,0.00,,,0.00,meteohub,2013-04-24 05:32:00,
2013-04-24 00:37:00,45.7,40.8,30.11,NNW,327,2.0,9.0,83,0.00,,,0.00,meteohub,2013-04-24 05:37:00,
2013-04-24 00:42:00,45.7,40.5,30.12,WNW,300,3.0,9.0,82,0.00,,,0.00,meteohub,2013-04-24 05:42:00,
2013-04-24 00:47:00,45.5,40.6,30.11,West,279,3.0,8.0,83,0.00,,,0.00,meteohub,2013-04-24 05:47:00,
2013-04-24 00:52:00,45.3,40.5,30.12,WNW,296,2.0,8.0,83,0.00,,,0.00,meteohub,2013-04-24 05:52:00,
2013-04-24 00:58:00,45.3,40.5,30.12,NW,309,4.0,7.0,83,0.00,,,0.00,meteohub,2013-04-24 05:58:00,
2013-04-24 01:03:00,45.1,40.3,30.12,NW,306,0.0,7.0,83,0.00,,,0.00,meteohub,2013-04-24 06:03:00,
2013-04-24 01:08:00,45.1,40.3,30.12,NNW,336,2.0,7.0,83,0.00,,,0.00,meteohub,2013-04-24 06:08:00,
2013-04-24 01:13:00,45.0,40.1,30.11,NW,325,2.0,8.0,83,0.00,,,0.00,meteohub,2013-04-24 06:13:00,
2013-04-24 01:18:00,45.0,40.1,30.12,WSW,244,8.0,8.0,83,0.00,,,0.00,meteohub,2013-04-24 06:18:00,
2013-04-24 01:23:00,45.0,40.1,30.12,WNW,302,5.0,8.0,83,0.00,,,0.00,meteohub,2013-04-24 06:23:00,
2013-04-24 01:28:00,44.8,39.9,30.12,WNW,294,3.0,8.0,83,0.00,,,0.00,meteohub,2013-04-24 06:28:00,
2013-04-24 01:33:00,44.6,39.7,30.12,WNW,301,1.0,8.0,83,0.00,,,0.00,meteohub,2013-04-24 06:33:00,
2013-04-24 01:38:00,44.4,40.3,30.12,ENE,59,3.0,8.0,85,0.00,,,0.00,meteohub,2013-04-24 06:38:00,
2013-04-24 01:43:00,44.2,39.7,30.11,NNW,327,1.0,8.0,84,0.00,,,0.00,meteohub,2013-04-24 06:43:00,
2013-04-24 01:48:00,44.1,39.9,30.10,NNW,340,2.0,8.0,85,0.00,,,0.00,meteohub,2013-04-24 06:48:00,
2013-04-24 01:53:00,44.1,40.1,30.10,NW,312,1.0,8.0,86,0.00,,,0.00,meteohub,2013-04-24 06:53:00,
2013-04-24 01:58:00,43.7,40.1,30.10,ENE,71,1.0,7.0,87,0.00,,,0.00,meteohub,2013-04-24 06:58:00,
2013-04-24 02:03:00,43.5,40.3,30.12,WSW,238,2.0,7.0,88,0.00,,,0.00,meteohub,2013-04-24 07:03:00,
2013-04-24 02:08:00,43.3,40.1,30.13,West,271,3.0,7.0,88,0.00,,,0.00,meteohub,2013-04-24 07:08:00,
2013-04-24 02:13:00,43.3,40.3,30.12,SW,221,2.0,7.0,89,0.00,,,0.00,meteohub,2013-04-24 07:13:00,
2013-04-24 02:18:00,43.2,40.1,30.14,NW,323,1.0,5.0,89,0.00,,,0.00,meteohub,2013-04-24 07:18:00,
2013-04-24 02:23:00,43.2,40.1,30.15,NNE,15,2.0,9.0,89,0.00,,,0.00,meteohub,2013-04-24 07:23:00,
2013-04-24 02:28:00,43.0,39.9,30.15,NW,306,1.0,10.0,89,0.00,,,0.00,meteohub,2013-04-24 07:28:00,
2013-04-24 02:33:00,43.0,39.9,30.15,WNW,286,5.0,10.0,89,0.00,,,0.00,meteohub,2013-04-24 07:33:00,
2013-04-24 02:38:00,42.8,39.7,30.14,WSW,258,1.0,10.0,89,0.00,,,0.00,meteohub,2013-04-24 07:38:00,
2013-04-24 02:43:00,42.6,39.6,30.13,SW,227,0.0,10.0,89,0.00,,,0.00,meteohub,2013-04-24 07:43:00,
2013-04-24 02:48:00,42.6,39.6,30.13,ENE,57,0.0,7.0,89,0.00,,,0.00,meteohub,2013-04-24 07:48:00,
2013-04-24 02:53:00,42.4,39.4,30.14,WNW,286,2.0,6.0,89,0.00,,,0.00,meteohub,2013-04-24 07:53:00,
2013-04-24 02:58:00,42.3,39.6,30.15,WSW,257,6.0,6.0,90,0.01,,,0.01,meteohub,2013-04-24 07:58:00,
2013-04-24 03:03:00,42.1,39.6,30.13,North,9,1.0,7.0,91,0.03,,,0.03,meteohub,2013-04-24 08:03:00,
2013-04-24 03:08:00,41.7,39.2,30.14,West,259,1.0,7.0,91,0.04,,,0.04,meteohub,2013-04-24 08:08:00,
2013-04-24 03:13:00,41.5,39.4,30.16,WNW,289,0.0,7.0,92,0.07,,,0.07,meteohub,2013-04-24 08:13:00,
2013-04-24 03:18:00,41.4,39.2,30.14,North,355,1.0,7.0,92,0.18,,,0.18,meteohub,2013-04-24 08:18:00,
2013-04-24 03:23:00,41.0,38.8,30.15,NW,323,0.0,7.0,92,0.31,,,0.31,meteohub,2013-04-24 08:23:00,
2013-04-24 03:28:00,40.8,39.0,30.16,WNW,286,2.0,5.0,93,0.32,,,0.32,meteohub,2013-04-24 08:28:00,
2013-04-24 03:33:00,41.0,39.4,30.16,WNW,285,0.0,6.0,94,0.33,,,0.33,meteohub,2013-04-24 08:33:00,
2013-04-24 03:38:00,41.0,39.4,30.15,ENE,66,1.0,6.0,94,0.33,,,0.33,meteohub,2013-04-24 08:38:00,
2013-04-24 03:43:00,41.0,39.4,30.16,West,262,3.0,6.0,94,0.34,,,0.34,meteohub,2013-04-24 08:43:00,
2013-04-24 03:49:00,41.0,39.4,30.15,West,275,1.0,8.0,94,0.35,,,0.35,meteohub,2013-04-24 08:49:00,
2013-04-24 03:54:00,41.2,39.6,30.17,WNW,292,1.0,8.0,94,0.36,,,0.36,meteohub,2013-04-24 08:54:00,
2013-04-24 03:59:00,41.2,39.6,30.17,NNW,329,1.0,8.0,94,0.34,,,0.36,meteohub,2013-04-24 08:59:00,
2013-04-24 04:04:00,41.2,39.6,30.17,WNW,302,1.0,6.0,94,0.32,,,0.36,meteohub,2013-04-24 09:04:00,
2013-04-24 04:09:00,41.2,39.6,30.17,WNW,298,1.0,5.0,94,0.31,,,0.36,meteohub,2013-04-24 09:09:00,
2013-04-24 04:14:00,41.2,39.6,30.17,NNW,329,1.0,4.0,94,0.24,,,0.36,meteohub,2013-04-24 09:14:00,
2013-04-24 04:19:00,41.0,39.4,30.17,NW,311,3.0,8.0,94,0.14,,,0.37,meteohub,2013-04-24 09:19:00,
2013-04-24 04:24:00,40.8,39.2,30.18,WNW,295,3.0,8.0,94,0.05,,,0.37,meteohub,2013-04-24 09:24:00,
2013-04-24 04:29:00,40.8,39.2,30.18,NNE,33,1.0,8.0,94,0.04,,,0.37,meteohub,2013-04-24 09:29:00,
2013-04-24 04:34:00,40.6,39.0,30.18,NW,315,4.0,8.0,94,0.04,,,0.37,meteohub,2013-04-24 09:34:00,
2013-04-24 04:39:00,40.6,39.0,30.18,WNW,301,2.0,7.0,94,0.04,,,0.37,meteohub,2013-04-24 09:39:00,
2013-04-24 04:44:00,40.6,39.0,30.18,WNW,295,3.0,6.0,94,0.03,,,0.37,meteohub,2013-04-24 09:44:00,
2013-04-24 04:49:00,40.6,39.0,30.18,WNW,293,2.0,6.0,94,0.01,,,0.37,meteohub,2013-04-24 09:49:00,
2013-04-24 04:54:00,40.6,39.0,30.18,NNW,346,1.0,7.0,94,0.01,,,0.37,meteohub,2013-04-24 09:54:00,
2013-04-24 04:59:00,40.6,39.0,30.18,NW,320,1.0,8.0,94,0.01,,,0.37,meteohub,2013-04-24 09:59:00,
2013-04-24 05:04:00,40.6,39.0,30.18,WSW,240,3.0,8.0,94,0.01,,,0.37,meteohub,2013-04-24 10:04:00,
2013-04-24 05:09:00,40.6,39.0,30.19,WNW,293,1.0,7.0,94,0.01,,,0.37,meteohub,2013-04-24 10:09:00,
2013-04-24 05:14:00,40.6,39.0,30.19,WSW,255,1.0,7.0,94,0.01,,,0.37,meteohub,2013-04-24 10:14:00,
2013-04-24 05:19:00,40.6,39.0,30.19,NW,316,1.0,5.0,94,0.00,,,0.37,meteohub,2013-04-24 10:19:00,
2013-04-24 05:24:00,40.6,39.0,30.19,ENE,60,3.0,5.0,94,0.00,,,0.37,meteohub,2013-04-24 10:24:00,
2013-04-24 05:29:00,40.6,39.0,30.19,West,279,0.0,5.0,94,0.00,,,0.37,meteohub,2013-04-24 10:29:00,
2013-04-24 05:34:00,40.6,39.0,30.19,North,355,1.0,5.0,94,0.00,,,0.37,meteohub,2013-04-24 10:34:00,
2013-04-24 05:39:00,40.6,39.0,30.19,North,355,2.0,5.0,94,0.00,,,0.37,meteohub,2013-04-24 10:39:00,
2013-04-24 05:44:00,40.6,39.0,30.19,NW,315,0.0,6.0,94,0.00,,,0.37,meteohub,2013-04-24 10:44:00,
2013-04-24 05:49:00,40.6,39.0,30.19,West,273,0.0,6.0,94,0.00,,,0.37,meteohub,2013-04-24 10:49:00,
2013-04-24 05:54:00,40.5,38.8,30.19,WNW,292,2.0,6.0,94,0.00,,,0.37,meteohub,2013-04-24 10:54:00,
2013-04-24 05:59:00,40.5,38.8,30.19,NW,318,0.0,5.0,94,0.00,,,0.37,meteohub,2013-04-24 10:59:00,
2013-04-24 06:04:00,40.5,38.8,30.20,WNW,302,2.0,9.0,94,0.00,,,0.37,meteohub,2013-04-24 11:04:00,
2013-04-24 06:09:00,40.6,39.0,30.19,WNW,286,0.0,9.0,94,0.00,,,0.37,meteohub,2013-04-24 11:09:00,
2013-04-24 06:14:00,40.6,39.0,30.20,NNW,339,2.0,9.0,94,0.00,,,0.37,meteohub,2013-04-24 11:14:00,
2013-04-24 06:20:00,40.6,39.0,30.20,WNW,296,0.0,3.0,94,0.00,,,0.37,meteohub,2013-04-24 11:20:00,
2013-04-24 06:25:00,40.6,39.0,30.20,NNE,33,1.0,3.0,94,0.00,,,0.37,meteohub,2013-04-24 11:25:00,
2013-04-24 06:30:00,40.5,38.8,30.21,NNE,26,7.0,7.0,94,0.00,,,0.37,meteohub,2013-04-24 11:30:00,
2013-04-24 06:35:00,40.1,37.9,30.21,NNW,342,2.0,8.0,92,0.00,,,0.37,meteohub,2013-04-24 11:35:00,
2013-04-24 06:40:00,39.9,37.8,30.21,NW,312,3.0,8.0,92,0.00,,,0.37,meteohub,2013-04-24 11:40:00,
2013-04-24 06:45:00,39.9,37.8,30.21,West,276,1.0,8.0,92,0.00,,,0.37,meteohub,2013-04-24 11:45:00,
2013-04-24 06:50:00,39.9,38.1,30.22,NNW,346,1.0,8.0,93,0.00,,,0.37,meteohub,2013-04-24 11:50:00,
2013-04-24 06:55:00,39.7,37.6,30.22,NW,319,5.0,8.0,92,0.00,,,0.37,meteohub,2013-04-24 11:55:00,
2013-04-24 07:00:00,39.7,37.6,30.22,SW,236,4.0,8.0,92,0.00,,,0.37,meteohub,2013-04-24 12:00:00,
2013-04-24 07:05:00,39.7,37.6,30.22,NNW,327,2.0,8.0,92,0.00,,,0.37,meteohub,2013-04-24 12:05:00,
2013-04-24 07:10:00,39.7,37.6,30.22,North,355,4.0,8.0,92,0.00,,,0.37,meteohub,2013-04-24 12:10:00,
2013-04-24 07:15:00,39.7,37.6,30.23,WNW,293,2.0,8.0,92,0.00,,,0.37,meteohub,2013-04-24 12:15:00,
2013-04-24 07:20:00,39.7,37.9,30.23,WNW,289,1.0,8.0,93,0.00,,,0.37,meteohub,2013-04-24 12:20:00,
2013-04-24 07:25:00,39.9,38.1,30.24,WNW,284,1.0,8.0,93,0.00,,,0.37,meteohub,2013-04-24 12:25:00,
2013-04-24 07:30:00,39.9,37.8,30.24,NE,36,3.0,8.0,92,0.00,,,0.37,meteohub,2013-04-24 12:30:00,
2013-04-24 07:35:00,39.9,37.8,30.25,NNW,332,5.0,8.0,92,0.00,,,0.37,meteohub,2013-04-24 12:35:00,
2013-04-24 07:40:00,39.9,37.8,30.25,WNW,292,2.0,8.0,92,0.00,,,0.37,meteohub,2013-04-24 12:40:00,
2013-04-24 07:45:00,39.9,37.8,30.25,NNE,15,1.0,10.0,92,0.00,,,0.37,meteohub,2013-04-24 12:45:00,
2013-04-24 07:50:00,39.9,37.6,30.25,North,9,2.0,10.0,91,0.00,,,0.37,meteohub,2013-04-24 12:50:00,
2013-04-24 07:55:00,40.1,37.8,30.26,NNE,24,2.0,10.0,91,0.00,,,0.37,meteohub,2013-04-24 12:55:00,
2013-04-24 08:00:00,40.1,37.8,30.25,NNE,27,1.0,8.0,91,0.00,,,0.37,meteohub,2013-04-24 13:00:00,
2013-04-24 08:05:00,40.3,37.9,30.26,NNE,19,5.0,6.0,91,0.00,,,0.37,meteohub,2013-04-24 13:05:00,
2013-04-24 08:10:00,40.3,37.9,30.26,North,9,4.0,6.0,91,0.00,,,0.37,meteohub,2013-04-24 13:10:00,
2013-04-24 08:15:00,40.5,38.1,30.26,NNW,347,5.0,8.0,91,0.00,,,0.37,meteohub,2013-04-24 13:15:00,
2013-04-24 08:20:00,40.5,38.1,30.27,NNW,340,4.0,10.0,91,0.00,,,0.37,meteohub,2013-04-24 13:20:00,
2013-04-24 08:25:00,40.6,38.3,30.26,NNE,28,0.0,10.0,91,0.00,,,0.37,meteohub,2013-04-24 13:25:00,
2013-04-24 08:30:00,40.8,38.5,30.26,NNE,33,2.0,10.0,91,0.00,,,0.37,meteohub,2013-04-24 13:30:00,
2013-04-24 08:35:00,40.8,38.1,30.26,NW,313,3.0,7.0,90,0.00,,,0.37,meteohub,2013-04-24 13:35:00,
2013-04-24 08:40:00,41.0,37.9,30.26,NNW,338,1.0,10.0,89,0.00,,,0.37,meteohub,2013-04-24 13:40:00,
2013-04-24 08:45:00,41.2,38.5,30.27,NNE,17,4.0,10.0,90,0.00,,,0.37,meteohub,2013-04-24 13:45:00,
2013-04-24 08:50:00,41.7,38.7,30.27,NE,36,3.0,8.0,89,0.00,,,0.37,meteohub,2013-04-24 13:50:00,
2013-04-24 08:55:00,42.4,39.2,30.26,WNW,297,1.0,9.0,88,0.00,,,0.37,meteohub,2013-04-24 13:55:00,
2013-04-24 09:00:00,43.2,39.6,30.26,North,5,2.0,9.0,87,0.00,,,0.37,meteohub,2013-04-24 14:00:00,
2013-04-24 09:05:00,43.5,39.9,30.27,NNW,336,1.0,9.0,87,0.00,,,0.37,meteohub,2013-04-24 14:05:00,
2013-04-24 09:10:00,43.9,39.9,30.27,NNE,13,0.0,7.0,86,0.00,,,0.37,meteohub,2013-04-24 14:10:00,
2013-04-24 09:15:00,44.1,39.6,30.27,WNW,294,2.0,8.0,84,0.00,,,0.37,meteohub,2013-04-24 14:15:00,
2013-04-24 09:20:00,44.4,39.6,30.27,NNE,22,5.0,8.0,83,0.00,,,0.37,meteohub,2013-04-24 14:20:00,
2013-04-24 09:25:00,45.0,40.5,30.27,NNE,24,2.0,9.0,84,0.00,,,0.37,meteohub,2013-04-24 14:25:00,
2013-04-24 09:30:00,45.7,41.4,30.27,NE,47,1.0,9.0,85,0.00,,,0.37,meteohub,2013-04-24 14:30:00,
2013-04-24 09:35:00,46.2,40.6,30.27,NE,46,2.0,9.0,81,0.00,,,0.37,meteohub,2013-04-24 14:35:00,
2013-04-24 09:40:00,46.8,40.6,30.27,North,355,6.0,8.0,79,0.00,,,0.37,meteohub,2013-04-24 14:40:00,
2013-04-24 09:45:00,46.9,40.8,30.27,WNW,302,2.0,13.0,79,0.00,,,0.37,meteohub,2013-04-24 14:45:00,
2013-04-24 09:50:00,47.3,40.8,30.27,NNE,16,1.0,13.0,78,0.00,,,0.37,meteohub,2013-04-24 14:50:00,
2013-04-24 09:55:00,47.7,41.5,30.28,NNE,15,3.0,13.0,79,0.00,,,0.37,meteohub,2013-04-24 14:55:00,
2013-04-24 10:00:00,46.9,40.5,30.28,WNW,303,1.0,11.0,78,0.00,,,0.37,meteohub,2013-04-24 15:00:00,
2013-04-24 10:05:00,46.8,41.0,30.28,WNW,290,2.0,8.0,80,0.00,,,0.37,meteohub,2013-04-24 15:05:00,
2013-04-24 10:10:00,46.8,41.0,30.28,WNW,301,1.0,8.0,80,0.00,,,0.37,meteohub,2013-04-24 15:10:00,
2013-04-24 10:15:00,46.6,40.1,30.28,North,11,1.0,8.0,78,0.00,,,0.37,meteohub,2013-04-24 15:15:00,
2013-04-24 10:20:00,46.2,40.1,30.28,North,10,1.0,8.0,79,0.00,,,0.37,meteohub,2013-04-24 15:20:00,
2013-04-24 10:25:00,46.6,41.0,30.28,NE,34,6.0,8.0,81,0.00,,,0.37,meteohub,2013-04-24 15:25:00,
2013-04-24 10:31:00,47.5,41.5,30.28,NNE,15,3.0,8.0,80,0.00,,,0.37,meteohub,2013-04-24 15:31:00,
2013-04-24 10:36:00,48.4,42.4,30.28,West,265,5.0,8.0,80,0.00,,,0.37,meteohub,2013-04-24 15:36:00,
2013-04-24 10:41:00,48.9,42.4,30.28,NNW,333,2.0,7.0,78,0.00,,,0.37,meteohub,2013-04-24 15:41:00,
2013-04-24 10:46:00,48.7,41.2,30.28,East,79,3.0,7.0,75,0.00,,,0.37,meteohub,2013-04-24 15:46:00,
2013-04-24 10:51:00,48.2,41.0,30.29,WNW,288,1.0,10.0,76,0.00,,,0.37,meteohub,2013-04-24 15:51:00,
2013-04-24 10:56:00,48.4,41.2,30.28,NW,309,1.0,10.0,76,0.00,,,0.37,meteohub,2013-04-24 15:56:00,
2013-04-24 11:01:00,48.9,41.7,30.28,East,87,5.0,10.0,76,0.00,,,0.37,meteohub,2013-04-24 16:01:00,
2013-04-24 11:06:00,49.5,41.2,30.28,NE,44,5.0,9.0,73,0.00,,,0.37,meteohub,2013-04-24 16:06:00,
2013-04-24 11:11:00,49.5,40.8,30.28,North,350,6.0,9.0,72,0.00,,,0.37,meteohub,2013-04-24 16:11:00,
2013-04-24 11:16:00,49.6,42.1,30.28,NNE,26,7.0,9.0,75,0.00,,,0.37,meteohub,2013-04-24 16:16:00,
2013-04-24 11:21:00,50.5,41.5,30.28,NE,40,1.0,9.0,71,0.00,,,0.37,meteohub,2013-04-24 16:21:00,
2013-04-24 11:26:00,51.3,43.3,30.28,North,9,2.0,9.0,74,0.00,,,0.37,meteohub,2013-04-24 16:26:00,
2013-04-24 11:31:00,51.3,42.3,30.28,WNW,291,1.0,8.0,71,0.00,,,0.37,meteohub,2013-04-24 16:31:00,
2013-04-24 11:36:00,51.1,41.7,30.29,North,355,2.0,9.0,70,0.00,,,0.37,meteohub,2013-04-24 16:36:00,
2013-04-24 11:41:00,51.4,42.8,30.28,NW,313,2.0,10.0,72,0.00,,,0.37,meteohub,2013-04-24 16:41:00,
2013-04-24 11:46:00,51.8,41.9,30.28,NW,311,1.0,10.0,69,0.00,,,0.37,meteohub,2013-04-24 16:46:00,
2013-04-24 11:51:00,52.0,42.1,30.28,North,5,3.0,10.0,69,0.00,,,0.37,meteohub,2013-04-24 16:51:00,
2013-04-24 11:56:00,51.4,40.5,30.28,NE,49,3.0,8.0,66,0.00,,,0.37,meteohub,2013-04-24 16:56:00,
2013-04-24 12:01:00,51.6,42.4,30.28,NW,306,2.0,9.0,71,0.00,,,0.37,meteohub,2013-04-24 17:01:00,
2013-04-24 12:06:00,52.3,42.8,30.28,NE,36,6.0,9.0,70,0.00,,,0.37,meteohub,2013-04-24 17:06:00,
2013-04-24 12:11:00,52.9,41.9,30.28,NE,47,7.0,9.0,66,0.00,,,0.37,meteohub,2013-04-24 17:11:00,
2013-04-24 12:16:00,53.1,43.2,30.28,West,259,5.0,7.0,69,0.00,,,0.37,meteohub,2013-04-24 17:16:00,
2013-04-24 12:21:00,54.0,44.1,30.28,ENE,65,1.0,7.0,69,0.00,,,0.37,meteohub,2013-04-24 17:21:00,
2013-04-24 12:26:00,54.1,43.9,30.27,NNW,329,5.0,7.0,68,0.00,,,0.37,meteohub,2013-04-24 17:26:00,
2013-04-24 12:31:00,54.3,44.1,30.27,WSW,255,4.0,8.0,68,0.00,,,0.37,meteohub,2013-04-24 17:31:00,
2013-04-24 12:36:00,54.5,43.3,30.27,NNE,19,1.0,8.0,66,0.00,,,0.37,meteohub,2013-04-24 17:36:00,
2013-04-24 12:41:00,54.5,45.0,30.27,NNE,22,3.0,6.0,70,0.00,,,0.37,meteohub,2013-04-24 17:41:00,
2013-04-24 12:46:00,54.7,43.5,30.27,NNE,31,2.0,6.0,66,0.00,,,0.37,meteohub,2013-04-24 17:46:00,
2013-04-24 12:51:00,54.9,43.3,30.27,NNE,12,4.0,7.0,65,0.00,,,0.37,meteohub,2013-04-24 17:51:00,
2013-04-24 12:56:00,55.2,44.1,30.27,NNW,346,2.0,7.0,66,0.00,,,0.37,meteohub,2013-04-24 17:56:00,
2013-04-24 13:02:00,55.6,42.8,30.27,NNW,332,3.0,9.0,62,0.00,,,0.37,meteohub,2013-04-24 18:02:00,
2013-04-24 13:07:00,55.0,42.3,30.26,NW,312,3.0,9.0,62,0.00,,,0.37,meteohub,2013-04-24 18:07:00,
2013-04-24 13:12:00,55.0,41.4,30.26,NNW,331,1.0,9.0,60,0.00,,,0.37,meteohub,2013-04-24 18:12:00,
2013-04-24 13:17:00,55.4,43.0,30.26,North,355,8.0,9.0,63,0.00,,,0.37,meteohub,2013-04-24 18:17:00,
2013-04-24 13:22:00,55.2,42.4,30.26,NNE,32,0.0,11.0,62,0.00,,,0.37,meteohub,2013-04-24 18:22:00,
2013-04-24 13:27:00,55.0,42.3,30.25,NE,42,3.0,11.0,62,0.00,,,0.37,meteohub,2013-04-24 18:27:00,
2013-04-24 13:32:00,55.6,42.8,30.25,North,0,2.0,11.0,62,0.00,,,0.37,meteohub,2013-04-24 18:32:00,
2013-04-24 13:37:00,56.1,42.8,30.25,NNW,341,1.0,8.0,61,0.00,,,0.37,meteohub,2013-04-24 18:37:00,
2013-04-24 13:42:00,56.5,44.4,30.25,North,0,2.0,8.0,64,0.00,,,0.37,meteohub,2013-04-24 18:42:00,
2013-04-24 13:47:00,57.4,45.0,30.25,North,350,4.0,8.0,63,0.00,,,0.37,meteohub,2013-04-24 18:47:00,
2013-04-24 13:52:00,57.6,44.2,30.24,NNE,19,7.0,8.0,61,0.00,,,0.37,meteohub,2013-04-24 18:52:00,
2013-04-24 13:57:00,57.4,42.8,30.24,NW,323,2.0,9.0,58,0.00,,,0.37,meteohub,2013-04-24 18:57:00,
2013-04-24 14:02:00,57.4,43.2,30.24,North,350,4.0,9.0,59,0.00,,,0.37,meteohub,2013-04-24 19:02:00,
2013-04-24 14:07:00,57.4,42.8,30.24,NNE,28,4.0,9.0,58,0.00,,,0.37,meteohub,2013-04-24 19:07:00,
2013-04-24 14:12:00,57.4,43.7,30.23,NNE,25,4.0,10.0,60,0.00,,,0.37,meteohub,2013-04-24 19:12:00,
2013-04-24 14:17:00,57.7,43.0,30.24,NW,304,1.0,10.0,58,0.00,,,0.37,meteohub,2013-04-24 19:17:00,
2013-04-24 14:22:00,57.7,43.9,30.24,WNW,302,3.0,12.0,60,0.00,,,0.37,meteohub,2013-04-24 19:22:00,
2013-04-24 14:27:00,57.9,44.1,30.23,NE,42,1.0,12.0,60,0.00,,,0.37,meteohub,2013-04-24 19:27:00,
2013-04-24 14:32:00,58.3,44.1,30.24,NE,56,1.0,10.0,59,0.00,,,0.37,meteohub,2013-04-24 19:32:00,
2013-04-24 14:37:00,58.6,43.5,30.23,ENE,72,2.0,7.0,57,0.00,,,0.37,meteohub,2013-04-24 19:37:00,
2013-04-24 14:42:00,58.6,43.0,30.23,North,355,2.0,8.0,56,0.00,,,0.37,meteohub,2013-04-24 19:42:00,
2013-04-24 14:47:00,59.2,43.9,30.23,ENE,61,5.0,8.0,57,0.00,,,0.37,meteohub,2013-04-24 19:47:00,
2013-04-24 14:52:00,59.4,44.6,30.23,North,349,3.0,10.0,58,0.00,,,0.37,meteohub,2013-04-24 19:52:00,
2013-04-24 14:57:00,59.4,43.2,30.23,NNE,31,3.0,10.0,55,0.00,,,0.37,meteohub,2013-04-24 19:57:00,
2013-04-24 15:02:00,59.4,42.8,30.23,NE,47,3.0,10.0,54,0.00,,,0.37,meteohub,2013-04-24 20:02:00,
2013-04-24 15:07:00,59.4,45.0,30.23,WNW,284,2.0,10.0,59,0.00,,,0.37,meteohub,2013-04-24 20:07:00,
2013-04-24 15:12:00,59.5,43.3,30.23,NE,48,2.0,10.0,55,0.00,,,0.37,meteohub,2013-04-24 20:12:00,
2013-04-24 15:17:00,59.9,43.7,30.22,NE,51,3.0,8.0,55,0.00,,,0.37,meteohub,2013-04-24 20:17:00,
2013-04-24 15:22:00,60.4,45.1,30.22,NNE,30,3.0,7.0,57,0.00,,,0.37,meteohub,2013-04-24 20:22:00,
2013-04-24 15:27:00,61.2,45.3,30.22,North,355,2.0,7.0,56,0.00,,,0.37,meteohub,2013-04-24 20:27:00,
2013-04-24 15:32:00,61.2,43.3,30.22,WNW,292,3.0,7.0,52,0.00,,,0.37,meteohub,2013-04-24 20:32:00,
2013-04-24 15:37:00,61.0,45.7,30.22,NW,304,2.0,8.0,57,0.00,,,0.37,meteohub,2013-04-24 20:37:00,
2013-04-24 15:42:00,61.3,44.1,30.22,NNE,30,1.0,8.0,53,0.00,,,0.37,meteohub,2013-04-24 20:42:00,
2013-04-24 15:47:00,61.2,42.4,30.22,NE,54,1.0,8.0,50,0.00,,,0.37,meteohub,2013-04-24 20:47:00,
2013-04-24 15:52:00,61.2,43.3,30.22,NE,55,3.0,5.0,52,0.00,,,0.37,meteohub,2013-04-24 20:52:00,
2013-04-24 15:57:00,61.2,44.4,30.22,NE,47,4.0,9.0,54,0.00,,,0.37,meteohub,2013-04-24 20:57:00,
2013-04-24 16:02:00,61.0,42.8,30.22,NNE,26,1.0,9.0,51,0.00,,,0.37,meteohub,2013-04-24 21:02:00,
2013-04-24 16:07:00,61.3,44.6,30.21,NNE,31,2.0,9.0,54,0.00,,,0.37,meteohub,2013-04-24 21:07:00,
2013-04-24 16:13:00,61.5,43.7,30.21,WNW,291,1.0,6.0,52,0.00,,,0.37,meteohub,2013-04-24 21:13:00,
2013-04-24 16:18:00,62.1,44.8,30.21,North,11,2.0,6.0,53,0.00,,,0.37,meteohub,2013-04-24 21:18:00,
2013-04-24 16:23:00,62.4,44.6,30.21,NNE,22,0.0,6.0,52,0.00,,,0.37,meteohub,2013-04-24 21:23:00,
2013-04-24 16:28:00,62.8,44.4,30.20,NNE,16,2.0,4.0,51,0.00,,,0.37,meteohub,2013-04-24 21:28:00,
2013-04-24 16:33:00,62.4,44.6,30.20,NNE,26,2.0,4.0,52,0.00,,,0.37,meteohub,2013-04-24 21:33:00,
2013-04-24 16:38:00,62.1,43.2,30.20,NNE,22,3.0,9.0,50,0.00,,,0.37,meteohub,2013-04-24 21:38:00,
2013-04-24 16:43:00,61.9,43.0,30.20,East,98,0.0,9.0,50,0.00,,,0.37,meteohub,2013-04-24 21:43:00,
2013-04-24 16:48:00,61.5,42.6,30.20,North,0,1.0,9.0,50,0.00,,,0.37,meteohub,2013-04-24 21:48:00,
2013-04-24 16:53:00,61.9,43.0,30.20,NNE,19,2.0,6.0,50,0.00,,,0.37,meteohub,2013-04-24 21:53:00,
2013-04-24 16:58:00,61.9,43.0,30.20,NE,36,1.0,7.0,50,0.00,,,0.37,meteohub,2013-04-24 21:58:00,
2013-04-24 17:03:00,61.9,45.1,30.20,ENE,60,1.0,9.0,54,0.00,,,0.37,meteohub,2013-04-24 22:03:00,
2013-04-24 17:08:00,62.4,43.0,30.20,North,5,4.0,9.0,49,0.00,,,0.37,meteohub,2013-04-24 22:08:00,
2013-04-24 17:13:00,62.1,43.7,30.19,East,83,0.0,9.0,51,0.00,,,0.37,meteohub,2013-04-24 22:13:00,
2013-04-24 17:18:00,62.2,43.3,30.20,NNE,12,4.0,7.0,50,0.00,,,0.37,meteohub,2013-04-24 22:18:00,
2013-04-24 17:23:00,61.9,42.4,30.20,NE,36,2.0,7.0,49,0.00,,,0.37,meteohub,2013-04-24 22:23:00,
2013-04-24 17:28:00,61.7,42.8,30.20,NE,42,1.0,7.0,50,0.00,,,0.37,meteohub,2013-04-24 22:28:00,
2013-04-24 17:33:00,61.9,43.5,30.20,ENE,76,2.0,7.0,51,0.00,,,0.37,meteohub,2013-04-24 22:33:00,
2013-04-24 17:38:00,61.9,43.5,30.19,NE,51,1.0,7.0,51,0.00,,,0.37,meteohub,2013-04-24 22:38:00,
2013-04-24 17:43:00,62.2,43.3,30.20,NE,38,2.0,7.0,50,0.00,,,0.37,meteohub,2013-04-24 22:43:00,
2013-04-24 17:48:00,62.2,43.9,30.20,ENE,64,0.0,7.0,51,0.00,,,0.37,meteohub,2013-04-24 22:48:00,
2013-04-24 17:53:00,62.1,43.7,30.20,ESE,123,0.0,4.0,51,0.00,,,0.37,meteohub,2013-04-24 22:53:00,
2013-04-24 17:58:00,62.4,43.0,30.20,SE,133,0.0,4.0,49,0.00,,,0.37,meteohub,2013-04-24 22:58:00,
2013-04-24 18:03:00,62.2,43.9,30.21,NE,50,1.0,4.0,51,0.00,,,0.37,meteohub,2013-04-24 23:03:00,
2013-04-24 18:09:00,62.1,42.1,30.20,NE,38,1.0,4.0,48,0.00,,,0.37,meteohub,2013-04-24 23:09:00,
2013-04-24 18:14:00,61.5,43.2,30.20,NE,41,2.0,4.0,51,0.00,,,0.37,meteohub,2013-04-24 23:14:00,
2013-04-24 18:19:00,61.3,44.1,30.20,North,5,2.0,4.0,53,0.00,,,0.37,meteohub,2013-04-24 23:19:00,
2013-04-24 18:24:00,61.3,43.0,30.20,NE,37,3.0,4.0,51,0.00,,,0.37,meteohub,2013-04-24 23:24:00,
2013-04-24 18:29:00,61.3,44.1,30.20,ENE,61,0.0,5.0,53,0.00,,,0.37,meteohub,2013-04-24 23:29:00,
2013-04-24 18:34:00,61.3,45.0,30.20,NE,55,0.0,5.0,55,0.00,,,0.37,meteohub,2013-04-24 23:34:00,
2013-04-24 18:39:00,61.0,43.7,30.20,NE,46,2.0,5.0,53,0.00,,,0.37,meteohub,2013-04-24 23:39:00,
2013-04-24 18:44:00,60.8,44.1,30.20,ENE,64,0.0,4.0,54,0.00,,,0.37,meteohub,2013-04-24 23:44:00,
2013-04-24 18:49:00,60.4,42.3,30.20,NE,34,3.0,4.0,51,0.00,,,0.37,meteohub,2013-04-24 23:49:00,
2013-04-24 18:54:00,60.3,43.5,30.20,ENE,67,2.0,5.0,54,0.00,,,0.37,meteohub,2013-04-24 23:54:00,
2013-04-24 18:59:00,60.1,43.3,30.20,ENE,61,1.0,5.0,54,0.00,,,0.37,meteohub,2013-04-24 23:59:00,
2013-04-24 19:04:00,59.7,43.5,30.20,NE,53,0.0,5.0,55,0.00,,,0.37,meteohub,2013-04-25 00:04:00,
2013-04-24 19:09:00,59.5,44.2,30.20,NNE,33,1.0,3.0,57,0.00,,,0.00,meteohub,2013-04-25 00:09:00,
2013-04-24 19:14:00,59.2,45.7,30.21,NNE,21,1.0,3.0,61,0.00,,,0.00,meteohub,2013-04-25 00:14:00,
2013-04-24 19:19:00,59.0,43.7,30.21,NE,41,2.0,4.0,57,0.00,,,0.00,meteohub,2013-04-25 00:19:00,
2013-04-24 19:24:00,58.6,43.5,30.21,NE,40,0.0,4.0,57,0.00,,,0.00,meteohub,2013-04-25 00:24:00,
2013-04-24 19:29:00,58.5,44.6,30.21,NE,40,0.0,4.0,60,0.00,,,0.00,meteohub,2013-04-25 00:29:00,
2013-04-24 19:34:00,58.3,45.7,30.21,NE,40,0.0,4.0,63,0.00,,,0.00,meteohub,2013-04-25 00:34:00,
2013-04-24 19:39:00,57.7,45.7,30.21,NE,40,0.0,4.0,64,0.00,,,0.00,meteohub,2013-04-25 00:39:00,
2013-04-24 19:44:00,57.4,44.4,30.21,NE,40,0.0,2.0,62,0.00,,,0.00,meteohub,2013-04-25 00:44:00,
2013-04-24 19:50:00,57.0,45.3,30.21,NE,40,0.0,2.0,65,0.00,,,0.00,meteohub,2013-04-25 00:50:00,
2013-04-24 19:55:00,56.8,45.1,30.21,NE,40,0.0,2.0,65,0.00,,,0.00,meteohub,2013-04-25 00:55:00,
2013-04-24 20:00:00,56.7,45.9,30.22,NE,40,0.0,2.0,67,0.00,,,0.00,meteohub,2013-04-25 01:00:00,
2013-04-24 20:05:00,56.3,45.9,30.22,NE,40,0.0,2.0,68,0.00,,,0.00,meteohub,2013-04-25 01:05:00,
2013-04-24 20:10:00,55.9,45.5,30.22,NE,40,0.0,1.0,68,0.00,,,0.00,meteohub,2013-04-25 01:10:00,
2013-04-24 20:15:00,55.8,45.7,30.22,NE,40,0.0,1.0,69,0.00,,,0.00,meteohub,2013-04-25 01:15:00,
2013-04-24 20:20:00,55.8,44.2,30.22,NE,40,0.0,2.0,65,0.00,,,0.00,meteohub,2013-04-25 01:20:00,
2013-04-24 20:25:00,55.8,44.6,30.22,NE,40,0.0,2.0,66,0.00,,,0.00,meteohub,2013-04-25 01:25:00,
2013-04-24 20:30:00,55.8,45.7,30.23,NE,40,0.0,2.0,69,0.00,,,0.00,meteohub,2013-04-25 01:30:00,
2013-04-24 20:35:00,55.6,45.5,30.23,NE,40,0.0,1.0,69,0.00,,,0.00,meteohub,2013-04-25 01:35:00,
2013-04-24 20:40:00,55.4,46.2,30.24,NE,40,0.0,1.0,71,0.00,,,0.00,meteohub,2013-04-25 01:40:00,
2013-04-24 20:45:00,55.2,47.1,30.24,NE,40,0.0,1.0,74,0.00,,,0.00,meteohub,2013-04-25 01:45:00,
2013-04-24 20:50:00,55.0,46.6,30.24,NE,40,0.0,0.0,73,0.00,,,0.00,meteohub,2013-04-25 01:50:00,
2013-04-24 20:55:00,54.9,46.0,30.25,NE,40,0.0,1.0,72,0.00,,,0.00,meteohub,2013-04-25 01:55:00,
2013-04-24 21:00:00,54.7,44.8,30.25,NE,40,0.0,1.0,69,0.00,,,0.00,meteohub,2013-04-25 02:00:00,
2013-04-24 21:05:00,54.3,45.5,30.25,NE,40,0.0,0.0,72,0.00,,,0.00,meteohub,2013-04-25 02:05:00,
2013-04-24 21:10:00,54.1,45.7,30.25,NE,40,0.0,0.0,73,0.00,,,0.00,meteohub,2013-04-25 02:10:00,
2013-04-24 21:15:00,54.0,45.9,30.26,NE,40,0.0,0.0,74,0.00,,,0.00,meteohub,2013-04-25 02:15:00,
2013-04-24 21:20:00,53.8,46.0,30.25,NE,40,0.0,0.0,75,0.00,,,0.00,meteohub,2013-04-25 02:20:00,
2013-04-24 21:25:00,53.6,46.2,30.26,NE,40,0.0,1.0,76,0.00,,,0.00,meteohub,2013-04-25 02:25:00,
2013-04-24 21:30:00,53.4,45.3,30.26,NE,40,0.0,1.0,74,0.00,,,0.00,meteohub,2013-04-25 02:30:00,
2013-04-24 21:35:00,53.4,44.6,30.26,NE,40,0.0,1.0,72,0.00,,,0.00,meteohub,2013-04-25 02:35:00,
2013-04-24 21:40:00,53.4,45.7,30.26,NE,40,0.0,1.0,75,0.00,,,0.00,meteohub,2013-04-25 02:40:00,
2013-04-24 21:45:00,53.2,45.5,30.27,NE,40,0.0,0.0,75,0.00,,,0.00,meteohub,2013-04-25 02:45:00,
2013-04-24 21:50:00,53.2,46.2,30.27,NE,40,0.0,0.0,77,0.00,,,0.00,meteohub,2013-04-25 02:50:00,
2013-04-24 21:55:00,53.1,46.0,30.27,NE,40,0.0,0.0,77,0.00,,,0.00,meteohub,2013-04-25 02:55:00,
2013-04-24 22:01:00,53.1,45.3,30.27,NE,40,0.0,0.0,75,0.00,,,0.00,meteohub,2013-04-25 03:01:00,
2013-04-24 22:06:00,53.1,45.7,30.27,NE,40,0.0,0.0,76,0.00,,,0.00,meteohub,2013-04-25 03:06:00,
2013-04-24 22:11:00,53.1,46.8,30.28,NE,40,0.0,1.0,79,0.00,,,0.00,meteohub,2013-04-25 03:11:00,
2013-04-24 22:16:00,53.1,46.0,30.28,NE,40,0.0,1.0,77,0.00,,,0.00,meteohub,2013-04-25 03:16:00,
2013-04-24 22:21:00,53.1,46.0,30.28,NE,40,0.0,1.0,77,0.00,,,0.00,meteohub,2013-04-25 03:21:00,
2013-04-24 22:26:00,53.1,46.0,30.28,NE,40,0.0,0.0,77,0.00,,,0.00,meteohub,2013-04-25 03:26:00,
2013-04-24 22:31:00,53.1,46.8,30.28,NE,40,0.0,0.0,79,0.00,,,0.00,meteohub,2013-04-25 03:31:00,
2013-04-24 22:36:00,53.1,46.4,30.28,NE,40,0.0,0.0,78,0.00,,,0.00,meteohub,2013-04-25 03:36:00,
2013-04-24 22:41:00,53.1,45.7,30.28,NE,40,0.0,1.0,76,0.00,,,0.00,meteohub,2013-04-25 03:41:00,
2013-04-24 22:46:00,53.1,46.0,30.28,NE,40,0.0,1.0,77,0.00,,,0.00,meteohub,2013-04-25 03:46:00,
2013-04-24 22:51:00,53.1,45.3,30.28,NE,40,0.0,1.0,75,0.00,,,0.00,meteohub,2013-04-25 03:51:00,
2013-04-24 22:56:00,53.1,46.0,30.28,NE,40,0.0,0.0,77,0.00,,,0.00,meteohub,2013-04-25 03:56:00,
2013-04-24 23:01:00,53.1,46.8,30.28,NE,40,0.0,0.0,79,0.00,,,0.00,meteohub,2013-04-25 04:01:00,
2013-04-24 23:06:00,52.9,45.5,30.28,NE,40,0.0,0.0,76,0.00,,,0.00,meteohub,2013-04-25 04:06:00,
2013-04-24 23:12:00,52.9,44.8,30.28,NE,40,1.0,0.0,74,0.00,,,0.00,meteohub,2013-04-25 04:12:00,
2013-04-24 23:17:00,52.7,44.6,30.28,NE,40,1.0,1.0,74,0.00,,,0.00,meteohub,2013-04-25 04:17:00,
2013-04-24 23:22:00,52.7,44.2,30.28,NE,40,0.0,2.0,73,0.00,,,0.00,meteohub,2013-04-25 04:22:00,
2013-04-24 23:27:00,52.5,45.1,30.27,NE,40,0.0,2.0,76,0.00,,,0.00,meteohub,2013-04-25 04:27:00,
2013-04-24 23:32:00,52.3,44.6,30.28,NE,40,0.0,2.0,75,0.00,,,0.00,meteohub,2013-04-25 04:32:00,
2013-04-24 23:37:00,52.2,44.1,30.28,NE,40,0.0,2.0,74,0.00,,,0.00,meteohub,2013-04-25 04:37:00,
2013-04-24 23:42:00,52.2,44.1,30.28,NE,40,0.0,2.0,74,0.00,,,0.00,meteohub,2013-04-25 04:42:00,
2013-04-24 23:47:00,52.2,44.1,30.28,NE,40,0.0,1.0,74,0.00,,,0.00,meteohub,2013-04-25 04:47:00,
2013-04-24 23:52:00,52.0,44.6,30.28,NE,40,0.0,0.0,76,0.00,,,0.00,meteohub,2013-04-25 04:52:00,
2013-04-24 23:57:00,51.8,45.1,30.28,NE,40,0.0,0.0,78,0.00,,,0.00,meteohub,2013-04-25 04:57:00,